Terminal Aerodrome Forecast
Issued by NWS

Home | Current Version | Previous Version | Text Only | Print | Product List | Glossary On
Versions: 1 2 3 4 5 6 7 8 9 10 11 12 13 14 15 16
000
FTUS43 KMQT 252328
TAFIWD
TAF
KIWD 252328Z 2600/2624 10006KT P6SM BKN025
     FM260300 10006KT P6SM BKN015
     FM260700 10004KT 5SM -RA OVC008
     FM261000 08003KT 2SM -RA BR OVC003
     FM261600 08003KT 3SM BR OVC008
     FM262100 36004KT P6SM OVC003=

USA.gov is the U.S. government's official web portal to all federal, state and local government web resources and services.